Time;durP1;ratioP1;P1;durP2;ratioP2;P2;SDS_P1;SDS_P2;PMS_P1;PMS_P2;Temp;Humidity;BMP_temperature;BMP_pressure;BME280_temperature;BME280_humidity;BME280_pressure;Samples;Min_cycle;Max_cycle;Signal;HPM_P1;HPM_P2
2022/12/13 00:01:56;;;;;;;28.45;14.80;;;;;;;-5.79;100.00;101170.03;5053125;28;20507;-47
2022/12/13 00:04:26;;;;;;;29.23;15.63;;;;;;;-5.75;100.00;101163.22;5052882;28;20068;-51
2022/12/13 00:06:55;;;;;;;28.70;15.65;;;;;;;-5.77;100.00;101165.78;5052844;28;20057;-47
2022/12/13 00:09:23;;;;;;;28.27;15.70;;;;;;;-5.76;100.00;101170.06;5053513;28;20063;-51
2022/12/13 00:11:52;;;;;;;29.35;15.45;;;;;;;-5.74;100.00;101168.34;5053615;28;20049;-54
2022/12/13 00:14:22;;;;;;;25.77;14.33;;;;;;;-5.79;100.00;101159.81;5053504;28;20045;-54
2022/12/13 00:16:50;;;;;;;29.95;15.18;;;;;;;-5.81;100.00;101151.22;5053570;28;20052;-55
2022/12/13 00:19:19;;;;;;;27.55;14.95;;;;;;;-5.81;100.00;101143.53;5052646;28;20549;-54
2022/12/13 00:21:49;;;;;;;28.08;14.90;;;;;;;-5.82;100.00;101147.81;5053513;28;20116;-52
2022/12/13 00:24:17;;;;;;;24.35;14.38;;;;;;;-5.82;100.00;101152.06;5053268;28;20053;-55
2022/12/13 00:26:45;;;;;;;27.88;15.02;;;;;;;-5.89;100.00;101152.88;5053221;28;20055;-52
2022/12/13 00:29:13;;;;;;;30.80;14.45;;;;;;;-5.88;100.00;101147.75;5052690;28;20435;-55
2022/12/13 00:31:41;;;;;;;28.23;13.88;;;;;;;-5.87;100.00;101148.63;5051324;28;20443;-51
2022/12/13 00:34:30;;;;;;;28.42;14.73;;;;;;;-5.92;100.00;101153.72;5052466;28;20053;-54
2022/12/13 00:36:59;;;;;;;32.25;15.40;;;;;;;-5.90;100.00;101149.47;5052916;28;20549;-54
2022/12/13 00:39:28;;;;;;;25.90;14.55;;;;;;;-5.91;100.00;101149.47;5053062;28;20067;-50
2022/12/13 00:42:03;;;;;;;29.35;14.38;;;;;;;-5.92;100.00;101152.84;5053386;28;20082;-54
2022/12/13 00:44:31;;;;;;;30.80;15.35;;;;;;;-5.95;100.00;101144.28;5053618;28;20063;-54
2022/12/13 00:46:59;;;;;;;30.15;15.90;;;;;;;-5.97;100.00;101138.31;5053095;28;20048;-54
2022/12/13 00:49:28;;;;;;;29.17;14.88;;;;;;;-5.97;100.00;101143.44;5052891;28;20087;-54
2022/12/13 00:51:56;;;;;;;30.58;14.85;;;;;;;-5.97;100.00;101142.56;5053013;28;20053;-56
2022/12/13 00:54:27;;;;;;;27.65;15.20;;;;;;;-5.95;100.00;101149.41;5053206;28;20124;-54
2022/12/13 00:56:56;;;;;;;25.70;14.13;;;;;;;-5.97;100.00;101142.56;5051905;28;20132;-57
2022/12/13 00:59:24;;;;;;;29.85;15.38;;;;;;;-6.00;100.00;101133.22;5051780;28;20049;-53
2022/12/13 01:01:52;;;;;;;29.48;15.32;;;;;;;-6.00;100.00;101140.91;5052320;28;20045;-54
2022/12/13 01:04:23;;;;;;;28.48;14.10;;;;;;;-6.03;100.00;101138.28;5052509;28;20365;-54
2022/12/13 01:06:52;;;;;;;29.55;15.18;;;;;;;-6.07;100.00;101139.09;5052399;28;20053;-54
2022/12/13 01:09:24;;;;;;;29.02;15.13;;;;;;;-6.10;100.00;101141.66;5051583;28;20049;-52
2022/12/13 01:11:57;;;;;;;26.42;15.10;;;;;;;-6.09;100.00;101138.25;5051986;28;20037;-55
2022/12/13 01:14:40;;;;;;;27.35;14.38;;;;;;;-6.09;100.00;101140.81;5049785;28;20118;-54
2022/12/13 01:17:09;;;;;;;26.50;14.38;;;;;;;-6.10;100.00;101143.38;5051501;28;20441;-55
2022/12/13 01:19:37;;;;;;;27.35;14.30;;;;;;;-6.11;100.00;101139.94;5051941;28;20057;-55
2022/12/13 01:22:06;;;;;;;24.90;13.65;;;;;;;-6.13;100.00;101139.91;5053070;28;20072;-55
2022/12/13 01:24:37;;;;;;;27.75;15.20;;;;;;;-6.10;100.00;101140.81;5052633;28;20045;-54
2022/12/13 01:27:07;;;;;;;29.17;14.32;;;;;;;-6.15;100.00;101139.06;5052645;28;20136;-56
2022/12/13 01:29:35;;;;;;;29.33;14.45;;;;;;;-6.16;100.00;101139.03;5052819;28;20045;-52
2022/12/13 01:32:04;;;;;;;28.17;14.82;;;;;;;-6.18;100.00;101139.00;5052958;28;20055;-54
2022/12/13 01:34:32;;;;;;;25.10;13.65;;;;;;;-6.20;100.00;101134.72;5052610;28;20037;-52
2022/12/13 01:37:00;;;;;;;26.65;13.57;;;;;;;-6.15;100.00;101138.19;5053577;28;20049;-53
2022/12/13 01:39:30;;;;;;;26.35;14.07;;;;;;;-6.11;100.00;101137.38;5056129;28;20049;-53
2022/12/13 01:45:23;;;;;;;28.88;14.48;;;;;;;-6.15;100.00;101138.19;5054713;28;20057;-53
2022/12/13 01:48:04;;;;;;;25.00;13.40;;;;;;;-6.21;100.00;101148.41;5056440;28;20049;-53
2022/12/13 01:50:37;;;;;;;23.42;12.63;;;;;;;-6.25;100.00;101149.22;5055402;28;20056;-54
2022/12/13 01:53:27;;;;;;;25.77;14.35;;;;;;;-6.18;100.00;101148.41;5053887;28;20569;-49
2022/12/13 01:56:01;;;;;;;28.67;13.65;;;;;;;-6.21;100.00;101156.06;5055405;28;20041;-48
2022/12/13 01:58:30;;;;;;;27.77;13.95;;;;;;;-6.28;100.00;101156.00;5054161;28;20170;-46
2022/12/13 02:01:00;;;;;;;25.83;13.82;;;;;;;-6.24;100.00;101154.34;5055327;28;20072;-49
2022/12/13 02:03:29;;;;;;;23.38;13.68;;;;;;;-6.29;100.00;101145.75;5055254;28;20094;-47
2022/12/13 02:06:02;;;;;;;27.90;13.90;;;;;;;-6.30;100.00;101139.78;5055181;28;20099;-48
2022/12/13 02:08:30;;;;;;;25.30;13.20;;;;;;;-6.33;100.00;101142.28;5055174;28;20049;-46
2022/12/13 02:11:04;;;;;;;25.08;13.02;;;;;;;-6.34;100.00;101142.28;5055231;28;20041;-49
2022/12/13 02:13:32;;;;;;;24.50;12.50;;;;;;;-6.31;100.00;101140.63;5055221;28;20106;-50
2022/12/13 02:16:12;;;;;;;24.88;13.48;;;;;;;-6.37;100.00;101140.56;5054969;28;20164;-47
2022/12/13 02:19:08;;;;;;;24.42;12.43;;;;;;;-6.35;100.00;101141.44;5054973;28;20052;-48
2022/12/13 02:21:45;;;;;;;24.65;12.73;;;;;;;-6.39;100.00;101132.00;5055347;28;20044;-46
2022/12/13 02:24:37;;;;;;;23.35;12.70;;;;;;;-6.41;100.00;101145.63;5054654;28;20083;-49
2022/12/13 02:27:13;;;;;;;22.90;12.05;;;;;;;-6.43;100.00;101143.06;5055219;28;20503;-46
2022/12/13 02:30:19;;;;;;;27.48;13.32;;;;;;;-6.47;100.00;101146.44;5055072;28;20055;-50
2022/12/13 02:32:59;;;;;;;22.83;13.05;;;;;;;-6.48;100.00;101145.56;5055256;28;20053;-54
2022/12/13 02:35:36;;;;;;;23.20;12.90;;;;;;;-6.51;100.00;101130.19;5054945;28;20569;-54
2022/12/13 02:38:11;;;;;;;23.77;12.38;;;;;;;-6.51;100.00;101137.03;5054671;28;20500;-52
2022/12/13 02:40:45;;;;;;;26.40;11.50;;;;;;;-6.52;100.00;101136.13;5055493;28;20048;-55
2022/12/13 02:43:20;;;;;;;24.08;12.07;;;;;;;-6.48;100.00;101137.88;5055470;28;20488;-54
2022/12/13 02:45:55;;;;;;;26.00;13.23;;;;;;;-6.48;100.00;101131.91;5055444;28;20045;-54
2022/12/13 02:48:25;;;;;;;;;;;;;;;-6.52;100.00;101130.19;5053980;28;20064;-53
2022/12/13 02:50:54;;;;;;;23.20;11.40;;;;;;;-6.52;100.00;101130.19;5054779;28;19936;-54
2022/12/13 02:53:23;;;;;;;22.85;11.88;;;;;;;-6.55;100.00;101132.72;5055187;28;20132;-54
2022/12/13 02:55:51;;;;;;;22.73;11.35;;;;;;;-6.60;100.00;101129.25;5054369;28;20098;-52
2022/12/13 02:58:27;;;;;;;25.92;12.10;;;;;;;-6.63;100.00;101130.91;5052724;28;20106;-56
2022/12/13 03:01:33;;;;;;;18.70;11.18;;;;;;;-6.58;100.00;101128.41;5052991;28;20143;-52
2022/12/13 03:04:16;;;;;;;21.40;11.05;;;;;;;-6.64;100.00;101126.66;5053300;28;20057;-55
2022/12/13 03:06:56;;;;;;;25.80;11.85;;;;;;;-6.67;100.00;101126.59;5054556;28;20041;-55
2022/12/13 03:09:42;;;;;;;25.95;12.10;;;;;;;-6.63;100.00;101119.84;5050478;28;20072;-47
2022/12/13 03:15:18;;;;;;;24.48;12.73;;;;;;;-6.65;100.00;101117.25;5054216;28;20425;-46
2022/12/13 03:17:51;;;;;;;25.20;12.18;;;;;;;-6.69;100.00;101112.97;5053766;28;20511;-47
2022/12/13 03:20:25;;;;;;;26.15;12.50;;;;;;;-6.68;100.00;101117.25;5050629;28;20392;-47
2022/12/13 03:22:55;;;;;;;24.42;12.10;;;;;;;-6.70;100.00;101110.38;5051075;28;20099;-46
2022/12/13 03:25:26;;;;;;;24.02;12.93;;;;;;;-6.69;100.00;101118.06;5053817;28;20079;-48
2022/12/13 03:28:00;;;;;;;27.38;12.05;;;;;;;-6.72;100.00;101110.38;5053725;28;20431;-49
2022/12/13 03:30:30;;;;;;;22.75;11.65;;;;;;;-6.74;100.00;101112.03;5053610;28;20045;-48
2022/12/13 03:33:00;;;;;;;21.73;12.32;;;;;;;-6.70;100.00;101113.78;5051972;28;20049;-47
2022/12/13 03:35:28;;;;;;;23.35;11.48;;;;;;;-6.74;100.00;101119.72;5053637;28;20484;-47
2022/12/13 03:38:12;;;;;;;23.02;12.60;;;;;;;-6.73;100.00;101118.03;5053543;28;20048;-47
2022/12/13 03:40:52;;;;;;;25.25;12.73;;;;;;;-6.77;100.00;101117.13;5053529;28;20045;-48
2022/12/13 03:43:20;;;;;;;23.27;11.50;;;;;;;-6.77;100.00;101117.13;5053174;28;20079;-48
2022/12/13 03:45:50;;;;;;;19.17;10.63;;;;;;;-6.81;100.00;101110.28;5053139;28;20131;-48
2022/12/13 03:48:21;;;;;;;22.67;11.48;;;;;;;-6.81;100.00;101111.13;5053206;28;20106;-48
2022/12/13 03:50:52;;;;;;;21.70;11.65;;;;;;;-6.82;100.00;101114.50;5053391;28;20127;-47
2022/12/13 03:53:20;;;;;;;21.45;11.55;;;;;;;-6.82;100.00;101111.09;5053415;28;20048;-47
2022/12/13 03:56:00;;;;;;;18.67;10.52;;;;;;;-6.76;100.00;101111.19;5053544;28;20151;-49
2022/12/13 03:58:29;;;;;;;21.85;12.50;;;;;;;-6.79;100.00;101113.69;5053032;28;20065;-46
2022/12/13 04:01:06;;;;;;;25.13;11.32;;;;;;;-6.73;100.00;101113.78;5052775;28;20051;-46
2022/12/13 04:03:36;;;;;;;22.33;12.50;;;;;;;-6.76;100.00;101118.88;5053131;28;20044;-47
2022/12/13 04:06:11;;;;;;;25.13;12.68;;;;;;;-6.78;100.00;101119.69;5053138;28;20049;-46
2022/12/13 04:08:40;;;;;;;21.63;11.68;;;;;;;-6.77;100.00;101119.69;5052952;28;20033;-47
2022/12/13 04:13:58;;;;;;;23.40;12.30;;;;;;;-6.72;100.00;101117.19;5052748;28;20044;-46
2022/12/13 04:16:26;;;;;;;;;;;;;;;-6.78;100.00;101117.97;5052649;28;20503;-45
2022/12/13 04:18:57;;;;;;;26.10;13.10;;;;;;;-6.80;100.00;101110.28;5049415;28;19955;-46
2022/12/13 04:21:25;;;;;;;25.33;12.75;;;;;;;-6.82;100.00;101109.41;5050625;28;20102;-47
2022/12/13 04:23:55;;;;;;;26.63;13.18;;;;;;;-6.75;100.00;101115.44;5053216;28;20041;-47
2022/12/13 04:26:28;;;;;;;23.52;13.57;;;;;;;-6.83;100.00;101112.81;5052565;28;20106;-47
2022/12/13 04:28:56;;;;;;;26.40;13.15;;;;;;;-6.81;100.00;101116.22;5052489;28;20059;-51
2022/12/13 04:31:25;;;;;;;23.38;12.65;;;;;;;-6.87;100.00;101118.75;5048246;28;20041;-47
2022/12/13 04:33:53;;;;;;;26.15;13.00;;;;;;;-6.85;100.00;101111.09;5049991;28;20123;-49
2022/12/13 04:36:24;;;;;;;24.45;12.52;;;;;;;-6.84;100.00;101118.78;5052950;28;20508;-50
2022/12/13 04:38:59;;;;;;;23.33;13.77;;;;;;;-6.84;100.00;101115.38;5051767;28;20530;-46
2022/12/13 04:41:28;;;;;;;24.60;13.02;;;;;;;-6.84;100.00;101120.47;5052761;28;20049;-47
2022/12/13 04:44:02;;;;;;;25.48;14.00;;;;;;;-6.88;100.00;101108.50;5052520;28;20426;-45
2022/12/13 04:46:30;;;;;;;23.55;12.88;;;;;;;-6.89;100.00;101107.63;5050839;28;20136;-45
2022/12/13 04:48:58;;;;;;;23.35;11.73;;;;;;;-6.87;100.00;101105.06;5051534;28;20412;-53
2022/12/13 04:51:28;;;;;;;27.38;12.65;;;;;;;-6.90;100.00;101100.78;5052479;28;20056;-54
2022/12/13 04:53:56;;;;;;;23.98;12.02;;;;;;;-6.87;100.00;101102.53;5052498;28;20053;-56
2022/12/13 04:56:44;;;;;;;24.73;12.52;;;;;;;-6.96;100.00;101104.13;5052263;28;20080;-55
2022/12/13 04:59:12;;;;;;;26.27;12.95;;;;;;;-6.94;100.00;101110.97;5052170;28;20049;-53
2022/12/13 05:01:41;;;;;;;20.85;11.30;;;;;;;-6.91;100.00;101108.44;5052354;28;20110;-54
2022/12/13 05:04:09;;;;;;;23.33;12.68;;;;;;;-6.94;100.00;101110.97;5052248;28;20052;-52
2022/12/13 05:06:39;;;;;;;21.73;12.00;;;;;;;-6.96;100.00;101114.38;5052445;28;20400;-55
2022/12/13 05:09:07;;;;;;;22.42;11.80;;;;;;;-7.02;100.00;101106.66;5052849;28;20045;-55
2022/12/13 05:11:38;;;;;;;28.48;13.13;;;;;;;-6.93;100.00;101103.31;5053934;28;20491;-55
2022/12/13 05:14:13;;;;;;;21.58;11.13;;;;;;;-6.97;100.00;101110.13;5056379;28;20049;-55
2022/12/13 05:16:50;;;;;;;24.23;12.95;;;;;;;-7.02;100.00;101105.75;5056424;28;20049;-55
2022/12/13 05:19:19;;;;;;;22.83;11.85;;;;;;;-7.05;100.00;101101.47;5056193;28;20049;-56
2022/12/13 05:21:48;;;;;;;24.42;12.98;;;;;;;-7.05;100.00;101093.78;5056287;28;20102;-55
2022/12/13 05:24:16;;;;;;;20.75;12.07;;;;;;;-7.09;100.00;101089.50;5056541;28;20045;-54
2022/12/13 05:26:44;;;;;;;20.85;11.73;;;;;;;-7.09;100.00;101094.59;5056386;28;20119;-53
2022/12/13 05:29:13;;;;;;;21.88;12.30;;;;;;;-7.09;100.00;101089.50;5055978;28;20488;-52
2022/12/13 05:31:44;;;;;;;22.55;11.75;;;;;;;-7.09;100.00;101084.38;5056826;28;20056;-55
2022/12/13 05:34:12;;;;;;;22.60;12.48;;;;;;;-7.11;100.00;101093.75;5056288;28;20049;-54
2022/12/13 05:36:40;;;;;;;22.83;11.80;;;;;;;-7.12;100.00;101084.34;5056054;28;20044;-54
2022/12/13 05:39:10;;;;;;;25.58;14.10;;;;;;;-7.11;100.00;101085.22;5055874;28;20609;-55
2022/12/13 05:41:58;;;;;;;23.45;12.07;;;;;;;-7.11;100.00;101086.06;5056399;28;20044;-54
2022/12/13 05:44:29;;;;;;;22.27;11.60;;;;;;;-7.11;100.00;101083.53;5056141;28;20488;-53
2022/12/13 05:46:57;;;;;;;23.15;12.48;;;;;;;-7.12;100.00;101079.25;5055454;28;20044;-57
2022/12/13 05:49:29;;;;;;;24.70;13.57;;;;;;;-7.14;100.00;101078.38;5056373;28;20041;-53
2022/12/13 05:51:57;;;;;;;22.80;11.48;;;;;;;-7.12;100.00;101074.13;5056206;28;20385;-54
2022/12/13 05:54:27;;;;;;;24.30;12.10;;;;;;;-7.15;100.00;101074.94;5056327;28;20128;-54
2022/12/13 05:56:55;;;;;;;21.92;11.40;;;;;;;-7.14;100.00;101070.72;5055508;28;20044;-52
2022/12/13 05:59:23;;;;;;;21.23;10.98;;;;;;;-7.12;100.00;101071.56;5087617;28;20106;-55
2022/12/13 06:01:51;;;;;;;22.83;11.60;;;;;;;-7.11;100.00;101065.63;5055510;28;20072;-54
2022/12/13 06:04:20;;;;;;;21.70;12.23;;;;;;;-7.14;100.00;101071.56;5056144;28;20115;-55
2022/12/13 06:06:51;;;;;;;26.55;13.15;;;;;;;-7.14;100.00;101073.25;5055975;28;20470;-54
2022/12/13 06:09:19;;;;;;;23.92;12.40;;;;;;;-7.19;100.00;101065.53;5056024;28;20075;-55
2022/12/13 06:11:49;;;;;;;25.67;13.23;;;;;;;-7.21;100.00;101068.91;5055980;28;20049;-55
2022/12/13 06:14:17;;;;;;;25.20;13.68;;;;;;;-7.21;100.00;101059.56;5055880;28;20443;-53
2022/12/13 06:16:50;;;;;;;27.52;14.27;;;;;;;-7.21;100.00;101063.78;5055704;28;20059;-53
2022/12/13 06:19:19;;;;;;;25.52;13.95;;;;;;;-7.19;100.00;101062.13;5055413;28;20399;-54
2022/12/13 06:21:47;;;;;;;24.35;12.57;;;;;;;-7.20;100.00;101060.41;5054043;28;20050;-54
2022/12/13 06:24:18;;;;;;;26.13;13.60;;;;;;;-7.19;100.00;101057.00;5055144;28;20045;-52
2022/12/13 06:26:46;;;;;;;23.33;13.20;;;;;;;-7.26;100.00;101061.19;5055353;28;20044;-54
2022/12/13 06:29:16;;;;;;;23.77;12.30;;;;;;;-7.24;100.00;101061.19;5054662;28;20072;-55
2022/12/13 06:31:53;;;;;;;29.63;13.30;;;;;;;-7.25;100.00;101056.91;5054933;28;20072;-51
2022/12/13 06:34:28;;;;;;;23.17;12.23;;;;;;;-7.27;100.00;101056.91;5054993;28;20095;-54
2022/12/13 06:36:56;;;;;;;22.10;12.02;;;;;;;-7.25;100.00;101057.81;5055045;28;20045;-54
2022/12/13 06:39:36;;;;;;;26.10;13.00;;;;;;;-7.20;100.00;101060.41;5054078;28;20144;-52
2022/12/13 06:42:06;;;;;;;23.50;12.48;;;;;;;-7.15;100.00;101063.88;5054608;28;20053;-55
2022/12/13 06:44:36;;;;;;;20.30;12.15;;;;;;;-7.09;100.00;101068.19;5054430;28;20052;-55
2022/12/13 06:47:04;;;;;;;24.02;13.13;;;;;;;-7.22;100.00;101059.53;5055586;28;20056;-53
2022/12/13 06:49:49;;;;;;;22.65;11.70;;;;;;;-7.24;100.00;101061.19;5054368;28;20048;-53
2022/12/13 06:52:17;;;;;;;25.75;12.80;;;;;;;-7.24;100.00;101062.06;5054372;28;20136;-51
2022/12/13 06:54:45;;;;;;;23.50;12.88;;;;;;;-7.28;100.00;101059.44;5054885;28;20045;-54
2022/12/13 06:57:13;;;;;;;25.27;13.82;;;;;;;-7.29;100.00;101058.59;5055219;28;20116;-52
2022/12/13 06:59:43;;;;;;;29.23;13.95;;;;;;;-7.30;100.00;101047.50;5054936;28;20546;-54
2022/12/13 07:02:11;;;;;;;27.33;13.68;;;;;;;-7.30;100.00;101060.28;5054311;28;20052;-53
2022/12/13 07:04:52;;;;;;;26.20;14.30;;;;;;;-7.31;100.00;101061.16;5054015;28;20113;-52
2022/12/13 07:07:21;;;;;;;28.42;14.10;;;;;;;-7.23;100.00;101065.47;5053949;28;20132;-54
2022/12/13 07:09:49;;;;;;;25.63;13.15;;;;;;;-7.22;100.00;101062.94;5053914;28;20124;-52
2022/12/13 07:12:18;;;;;;;31.75;14.35;;;;;;;-7.19;100.00;101067.22;5053989;28;20045;-52
2022/12/13 07:14:47;;;;;;;28.85;13.50;;;;;;;-7.20;100.00;101068.06;5053520;28;20403;-51
2022/12/13 07:17:15;;;;;;;29.48;14.32;;;;;;;-7.20;100.00;101070.63;5054504;28;20056;-56
2022/12/13 07:20:03;;;;;;;29.35;13.77;;;;;;;-7.23;100.00;101062.94;5054390;28;20037;-53
2022/12/13 07:22:32;;;;;;;25.92;13.48;;;;;;;-7.22;100.00;101060.38;5054622;28;20048;-55
2022/12/13 07:25:04;;;;;;;30.20;14.87;;;;;;;-7.26;100.00;101070.56;5052917;28;20060;-54
2022/12/13 07:27:33;;;;;;;27.65;14.40;;;;;;;-7.22;100.00;101065.50;5054285;28;20103;-52
2022/12/13 07:30:04;;;;;;;29.92;14.13;;;;;;;-7.19;100.00;101065.53;5054597;28;20037;-52
2022/12/13 07:32:32;;;;;;;29.10;14.68;;;;;;;-7.16;100.00;101074.94;5054283;28;20056;-52
2022/12/13 07:35:00;;;;;;;31.00;15.68;;;;;;;-7.19;100.00;101074.91;5053594;28;20056;-52
2022/12/13 07:37:28;;;;;;;35.30;15.45;;;;;;;-7.17;100.00;101073.22;5053447;28;20037;-51
2022/12/13 07:39:59;;;;;;;28.52;15.05;;;;;;;-7.20;100.00;101065.50;5053133;28;20500;-52
2022/12/13 07:42:31;;;;;;;29.42;15.13;;;;;;;-7.20;100.00;101070.63;5054098;28;20063;-52
2022/12/13 07:45:03;;;;;;;28.58;14.85;;;;;;;-7.20;100.00;101074.06;5053668;28;20123;-54
2022/12/13 07:47:32;;;;;;;33.00;15.35;;;;;;;-7.21;100.00;101079.13;5053838;28;20083;-55
2022/12/13 07:50:00;;;;;;;29.40;14.98;;;;;;;-7.20;100.00;101078.28;5053704;28;20057;-55
2022/12/13 07:52:29;;;;;;;31.13;16.70;;;;;;;-7.19;100.00;101082.56;5053591;28;20115;-55
2022/12/13 07:54:57;;;;;;;31.48;15.25;;;;;;;-7.16;100.00;101082.59;5053715;28;20053;-53
2022/12/13 07:57:25;;;;;;;31.65;15.93;;;;;;;-7.09;100.00;101086.94;5052936;28;20080;-52
2022/12/13 07:59:53;;;;;;;30.85;15.35;;;;;;;-7.09;100.00;101089.50;5052556;28;20060;-55
2022/12/13 08:02:23;;;;;;;29.50;14.82;;;;;;;-7.10;100.00;101092.03;5053692;28;20084;-56
2022/12/13 08:04:51;;;;;;;35.65;16.58;;;;;;;-7.05;100.00;101098.91;5053229;28;20053;-55
2022/12/13 08:07:22;;;;;;;31.50;16.13;;;;;;;-7.04;100.00;101102.34;5052976;28;20118;-55
2022/12/13 08:09:51;;;;;;;30.60;15.43;;;;;;;-7.04;100.00;101103.19;5053373;28;20083;-54
2022/12/13 08:12:20;;;;;;;34.10;15.65;;;;;;;-7.01;100.00;101105.81;5053933;28;20443;-54
2022/12/13 08:14:50;;;;;;;31.00;15.95;;;;;;;-6.99;100.00;101100.72;5053590;28;20083;-52
2022/12/13 08:17:21;;;;;;;30.48;15.13;;;;;;;-6.96;100.00;101091.34;5053039;28;20068;-53
2022/12/13 08:19:50;;;;;;;31.50;16.55;;;;;;;-6.88;100.00;101104.22;5051575;28;20135;-52
2022/12/13 08:22:18;;;;;;;36.33;16.73;;;;;;;-6.81;100.00;101110.28;5052989;28;20037;-52
2022/12/13 08:24:51;;;;;;;31.25;15.55;;;;;;;-6.68;100.00;101099.34;5053079;28;20040;-53
2022/12/13 08:27:19;;;;;;;32.00;15.65;;;;;;;-6.60;100.00;101094.25;5052976;28;20526;-52
2022/12/13 08:29:48;;;;;;;34.53;16.33;;;;;;;-6.55;100.00;101096.88;5053449;28;20114;-55
2022/12/13 08:32:16;;;;;;;29.50;15.48;;;;;;;-6.53;100.00;101102.84;5053707;28;20114;-56
2022/12/13 08:34:44;;;;;;;31.55;16.80;;;;;;;-6.46;100.00;101102.09;5052638;28;20495;-55
2022/12/13 08:37:14;;;;;;;34.25;15.63;;;;;;;-6.41;100.00;101102.13;5052541;28;20074;-52
2022/12/13 08:39:43;;;;;;;33.03;15.95;;;;;;;-6.34;100.00;101101.31;5053062;28;20146;-55
2022/12/13 08:42:13;;;;;;;33.88;16.83;;;;;;;-6.25;100.00;101092.88;5052398;28;20079;-54
2022/12/13 08:44:48;;;;;;;35.45;17.05;;;;;;;-6.21;100.00;101085.22;5052701;28;20361;-52
2022/12/13 08:47:17;;;;;;;34.10;15.40;;;;;;;-6.12;100.00;101092.13;5052854;28;20056;-53
2022/12/13 08:49:57;;;;;;;35.13;17.08;;;;;;;-6.02;100.00;101086.22;5052517;28;20494;-53
2022/12/13 08:52:32;;;;;;;41.47;19.13;;;;;;;-5.87;100.00;101094.84;5052611;28;20056;-54
2022/12/13 08:55:09;;;;;;;34.80;19.00;;;;;;;-5.75;100.00;101099.16;5052445;28;20500;-49
2022/12/13 08:57:37;;;;;;;38.75;18.50;;;;;;;-5.69;100.00;101097.50;5052047;28;20520;-48
2022/12/13 09:00:19;;;;;;;39.50;19.98;;;;;;;-5.58;100.00;101095.00;5050746;28;20394;-48
2022/12/13 09:02:49;;;;;;;42.65;19.45;;;;;;;-5.51;100.00;101093.31;5052484;28;20069;-49
2022/12/13 09:05:17;;;;;;;38.70;19.33;;;;;;;-5.52;100.00;101097.59;5052043;28;20071;-47
2022/12/13 09:08:04;;;;;;;42.05;20.80;;;;;;;-5.47;100.00;101107.88;5050382;28;20091;-49
2022/12/13 09:10:59;;;;;;;42.15;20.30;;;;;;;-5.42;100.00;101093.38;5051857;28;20052;-46
2022/12/13 09:13:28;;;;;;;40.50;19.48;;;;;;;-5.35;100.00;101095.09;5047812;28;20045;-46
2022/12/13 09:15:59;;;;;;;;;;;;;;;-5.31;100.00;101096.84;5051117;28;20063;-48
2022/12/13 09:18:28;;;;;;;40.47;18.98;;;;;;;-5.22;100.00;101103.72;5051928;28;19921;-45
2022/12/13 09:21:07;;;;;;;39.70;19.55;;;;;;;-5.15;100.00;101109.75;5052400;28;20543;-45
2022/12/13 09:23:40;;;;;;;44.63;21.40;;;;;;;-5.05;100.00;101103.78;5052025;28;20522;-45
2022/12/13 09:26:16;;;;;;;44.20;21.90;;;;;;;-4.96;100.00;101108.94;5052238;28;20425;-45
2022/12/13 09:28:52;;;;;;;39.42;20.42;;;;;;;-4.80;100.00;101116.69;5052085;28;20396;-46
2022/12/13 09:31:20;;;;;;;37.05;19.48;;;;;;;-4.79;100.00;101114.09;5051808;28;20049;-46
2022/12/13 09:33:50;;;;;;;40.03;20.27;;;;;;;-4.77;100.00;101117.56;5051885;28;20044;-47
2022/12/13 09:36:20;;;;;;;40.33;21.27;;;;;;;-4.71;100.00;101115.88;5051795;28;20064;-45
2022/12/13 09:38:52;;;;;;;46.63;22.70;;;;;;;-4.69;100.00;101111.56;5051862;28;20138;-49
2022/12/13 09:41:25;;;;;;;45.97;22.83;;;;;;;-4.67;100.00;101118.44;5051879;28;20045;-47
2022/12/13 09:44:01;;;;;;;41.28;21.55;;;;;;;-4.64;100.00;101109.88;5052116;28;20095;-46
2022/12/13 09:46:32;;;;;;;41.67;21.63;;;;;;;-4.60;100.00;101107.31;5051856;28;20510;-49
2022/12/13 09:49:14;;;;;;;;;;;;;;;-4.54;100.00;101111.63;5052303;28;20041;-46
2022/12/13 09:51:53;;;;;;;41.30;20.52;;;;;;;-4.47;100.00;101120.16;5051929;28;20386;-48
2022/12/13 09:54:40;;;;;;;43.83;21.33;;;;;;;-4.44;100.00;101113.31;5051872;28;20055;-51
2022/12/13 09:57:19;;;;;;;43.13;21.27;;;;;;;-4.42;100.00;101114.19;5052191;28;20083;-50
2022/12/13 10:00:02;;;;;;;45.80;22.75;;;;;;;-4.38;100.00;101102.19;5055549;28;20076;-51
2022/12/13 10:02:43;;;;;;;42.58;22.02;;;;;;;-4.35;100.00;101099.66;5055502;28;20048;-47
2022/12/13 10:05:18;;;;;;;45.20;23.02;;;;;;;-4.28;100.00;101103.94;5054773;28;20041;-48
2022/12/13 10:08:00;;;;;;;43.15;23.27;;;;;;;-4.18;100.00;101099.66;5054914;28;20067;-48
2022/12/13 10:10:29;;;;;;;45.58;21.67;;;;;;;-4.11;100.00;101093.63;5055180;28;20049;-47
2022/12/13 10:13:10;;;;;;;45.58;22.98;;;;;;;-4.06;100.00;101085.94;5054890;28;20045;-47
2022/12/13 10:15:42;;;;;;;43.13;22.25;;;;;;;-4.05;100.00;101091.94;5055448;28;20132;-49
2022/12/13 10:18:16;;;;;;;41.78;22.58;;;;;;;-3.92;100.00;101088.50;5054934;28;20064;-46
2022/12/13 10:20:47;;;;;;;41.88;20.90;;;;;;;-3.87;100.00;101080.78;5055159;28;20040;-47
2022/12/13 10:23:15;;;;;;;42.28;21.85;;;;;;;-3.91;100.00;101078.22;5055090;28;20056;-48
2022/12/13 10:26:11;;;;;;;46.00;21.90;;;;;;;-3.84;100.00;101085.94;5055201;28;20052;-47
2022/12/13 10:28:51;;;;;;;42.53;21.73;;;;;;;-3.84;100.00;101080.78;5055035;28;20057;-47
2022/12/13 10:31:20;;;;;;;39.30;20.33;;;;;;;-3.86;100.00;101079.91;5054832;28;20049;-47
2022/12/13 10:33:55;;;;;;;43.63;22.52;;;;;;;-3.78;100.00;101073.88;5054897;28;20048;-49
2022/12/13 10:36:31;;;;;;;39.90;22.08;;;;;;;-3.79;100.00;101068.75;5053773;28;20119;-48
2022/12/13 10:39:00;;;;;;;41.05;21.75;;;;;;;-3.79;100.00;101069.63;5055055;28;20057;-48
2022/12/13 10:41:32;;;;;;;42.47;21.98;;;;;;;-3.79;100.00;101067.06;5054678;28;20430;-46
2022/12/13 10:44:20;;;;;;;45.10;21.20;;;;;;;-3.74;100.00;101061.91;5054608;28;20060;-47
2022/12/13 10:46:53;;;;;;;42.35;22.05;;;;;;;-3.72;100.00;101056.75;5054730;28;20067;-46
2022/12/13 10:49:23;;;;;;;39.75;21.52;;;;;;;-3.69;100.00;101059.34;5054533;28;20045;-48
2022/12/13 10:51:53;;;;;;;40.33;21.67;;;;;;;-3.68;100.00;101054.19;5054849;28;20045;-50
2022/12/13 10:54:27;;;;;;;46.92;22.35;;;;;;;-3.63;100.00;101049.00;5054476;28;20127;-48
2022/12/13 10:57:11;;;;;;;41.05;20.60;;;;;;;-3.58;100.00;101048.13;5053843;28;20076;-49
2022/12/13 10:59:40;;;;;;;41.17;20.55;;;;;;;-3.53;100.00;101043.00;5053039;28;20045;-48
2022/12/13 11:02:29;;;;;;;41.05;20.25;;;;;;;-3.44;100.00;101037.78;5054810;28;20436;-56
2022/12/13 11:04:58;;;;;;;45.50;21.15;;;;;;;-3.42;100.00;101032.66;5054830;28;20037;-56
2022/12/13 11:07:29;;;;;;;41.17;21.15;;;;;;;-3.40;100.00;101030.94;5053904;28;20127;-56
2022/12/13 11:09:58;;;;;;;44.72;21.05;;;;;;;-3.42;100.00;101032.66;5051506;28;20052;-56
2022/12/13 11:12:34;;;;;;;40.47;19.90;;;;;;;-3.37;100.00;101033.47;5053550;28;20068;-56
2022/12/13 11:15:06;;;;;;;38.22;21.30;;;;;;;-3.29;100.00;101030.88;5052953;28;20044;-57
2022/12/13 11:17:45;;;;;;;42.65;22.13;;;;;;;-3.22;100.00;101029.97;5054485;28;20531;-56
2022/12/13 11:20:18;;;;;;;42.55;21.73;;;;;;;-3.16;100.00;101029.97;5053952;28;20128;-56
2022/12/13 11:22:46;;;;;;;42.28;20.83;;;;;;;-3.12;100.00;101030.78;5053492;28;20045;-56
2022/12/13 11:25:22;;;;;;;38.70;20.58;;;;;;;-3.07;100.00;101029.03;5053336;28;20048;-56
2022/12/13 11:28:08;;;;;;;37.25;18.88;;;;;;;-2.98;100.00;101017.84;5053906;28;20045;-56
2022/12/13 11:31:08;;;;;;;35.95;18.63;;;;;;;-2.98;100.00;101015.28;5052959;28;20511;-55
2022/12/13 11:33:47;;;;;;;35.55;18.42;;;;;;;-2.86;100.00;101006.59;5052648;28;20049;-56
2022/12/13 11:36:28;;;;;;;35.47;18.42;;;;;;;-2.83;100.00;101015.16;5054031;28;20510;-56